Time;durP1;ratioP1;P1;durP2;ratioP2;P2;SDS_P1;SDS_P2;PMS_P1;PMS_P2;Temp;Humidity;BMP_temperature;BMP_pressure;BME280_temperature;BME280_humidity;BME280_pressure;Samples;Min_cycle;Max_cycle;Signal;HPM_P1;HPM_P2
2022/09/01 00:03:12;;;;;;;2.28;2.08;;;;;;;;;;12592562;28;20041;-76
2022/09/01 00:09:15;;;;;;;2.47;1.92;;;;;;;;;;12594161;28;20036;-76
2022/09/01 00:15:17;;;;;;;1.95;1.85;;;;;;;;;;12593147;28;20032;-76
2022/09/01 00:21:20;;;;;;;1.88;1.50;;;;;;;;;;12558002;28;20509;-76
2022/09/01 00:27:22;;;;;;;2.70;1.80;;;;;;;;;;12575164;28;20041;-76
2022/09/01 00:33:24;;;;;;;1.50;1.40;;;;;;;;;;12575383;28;20048;-76
2022/09/01 00:39:26;;;;;;;1.20;1.15;;;;;;;;;;12580786;28;20569;-76
2022/09/01 00:45:29;;;;;;;1.15;1.15;;;;;;;;;;12566922;28;20044;-76
2022/09/01 00:51:32;;;;;;;1.50;1.20;;;;;;;;;;12601295;28;20054;-76
2022/09/01 00:57:34;;;;;;;1.13;1.13;;;;;;;;;;12582651;28;20037;-76
2022/09/01 01:03:36;;;;;;;1.05;0.95;;;;;;;;;;12582704;28;20041;-76
2022/09/01 01:09:41;;;;;;;1.95;1.05;;;;;;;;;;12600834;28;20044;-76
2022/09/01 01:15:43;;;;;;;1.27;1.17;;;;;;;;;;12582616;28;20048;-76
2022/09/01 01:28:14;;;;;;;1.02;0.90;;;;;;;;;;12581532;28;20033;-76
2022/09/01 01:34:17;;;;;;;1.17;0.93;;;;;;;;;;12581492;28;20043;-76
2022/09/01 01:40:21;;;;;;;0.80;0.80;;;;;;;;;;12581939;28;20041;-76
2022/09/01 01:46:24;;;;;;;1.13;1.00;;;;;;;;;;12565163;28;20048;-76
2022/09/01 01:52:26;;;;;;;0.77;0.77;;;;;;;;;;12597903;28;20032;-76
2022/09/01 01:58:29;;;;;;;0.95;0.95;;;;;;;;;;12580162;28;20047;-76
2022/09/01 02:04:33;;;;;;;0.80;0.80;;;;;;;;;;12563169;28;20044;-76
2022/09/01 02:10:42;;;;;;;1.02;1.00;;;;;;;;;;12564350;28;20032;-75
2022/09/01 02:16:44;;;;;;;1.20;1.10;;;;;;;;;;12579059;28;20048;-74
2022/09/01 02:22:46;;;;;;;1.52;1.10;;;;;;;;;;12578975;28;20033;-75
2022/09/01 02:28:48;;;;;;;;;;;;;;;;;;12579177;28;20056;-75
2022/09/01 02:34:52;;;;;;;1.13;1.00;;;;;;;;;;12596293;28;19915;-75
2022/09/01 02:40:57;;;;;;;0.73;0.73;;;;;;;;;;12578799;28;20037;-76
2022/09/01 02:47:00;;;;;;;1.30;1.20;;;;;;;;;;12578477;28;20032;-76
2022/09/01 02:53:05;;;;;;;1.33;1.27;;;;;;;;;;12561408;28;21205;-76
2022/09/01 02:59:11;;;;;;;1.40;1.30;;;;;;;;;;12577025;28;20441;-76
2022/09/01 03:05:15;;;;;;;1.08;1.08;;;;;;;;;;12577378;28;20390;-76
2022/09/01 03:11:17;;;;;;;1.13;1.10;;;;;;;;;;12561523;28;20032;-76
2022/09/01 03:17:20;;;;;;;1.00;1.00;;;;;;;;;;12576828;28;20049;-74
2022/09/01 03:23:24;;;;;;;0.80;0.80;;;;;;;;;;12576390;28;20043;-74
2022/09/01 03:29:25;;;;;;;1.88;1.30;;;;;;;;;;12575962;28;20056;-75
2022/09/01 03:35:30;;;;;;;1.60;1.50;;;;;;;;;;12576120;28;20032;-76
2022/09/01 03:41:36;;;;;;;1.20;1.20;;;;;;;;;;12577097;28;20049;-75
2022/09/01 03:47:40;;;;;;;1.50;1.40;;;;;;;;;;12575892;28;20044;-76
2022/09/01 03:53:44;;;;;;;1.30;1.20;;;;;;;;;;12575629;28;20033;-76
2022/09/01 03:59:45;;;;;;;1.08;1.00;;;;;;;;;;12576517;28;20045;-76
2022/09/01 04:05:49;;;;;;;1.27;1.17;;;;;;;;;;12563920;28;20028;-75
2022/09/01 04:11:51;;;;;;;1.98;1.15;;;;;;;;;;12561437;28;20393;-75
2022/09/01 04:18:18;;;;;;;1.05;0.95;;;;;;;;;;12584923;28;20393;-75
2022/09/01 04:24:27;;;;;;;0.95;0.95;;;;;;;;;;12584623;28;20028;-75
2022/09/01 04:30:32;;;;;;;0.98;0.98;;;;;;;;;;12568400;28;20059;-75
2022/09/01 04:36:55;;;;;;;0.80;0.80;;;;;;;;;;12586880;28;20409;-76
2022/09/01 04:42:57;;;;;;;0.80;0.80;;;;;;;;;;12584424;28;20498;-75
2022/09/01 04:49:02;;;;;;;1.02;0.93;;;;;;;;;;12583830;28;20047;-75
2022/09/01 04:55:04;;;;;;;0.70;0.70;;;;;;;;;;12567520;28;20378;-75
2022/09/01 05:01:13;;;;;;;0.60;0.60;;;;;;;;;;12582905;28;20048;-76
2022/09/01 05:07:15;;;;;;;0.70;0.70;;;;;;;;;;12582915;28;20061;-75
2022/09/01 05:13:16;;;;;;;0.90;0.90;;;;;;;;;;12582951;28;20043;-75
2022/09/01 05:19:19;;;;;;;1.50;0.60;;;;;;;;;;12582044;28;20267;-75
2022/09/01 05:25:22;;;;;;;1.40;0.90;;;;;;;;;;12580577;28;20028;-75
2022/09/01 05:31:23;;;;;;;;;;;;;;;;;;12565484;28;20443;-75
2022/09/01 05:37:27;;;;;;;0.60;0.60;;;;;;;;;;12581688;28;19916;-75
2022/09/01 05:43:32;;;;;;;0.68;0.68;;;;;;;;;;12600195;28;20462;-75
2022/09/01 05:49:34;;;;;;;0.95;0.55;;;;;;;;;;12580047;28;20422;-76
2022/09/01 05:55:39;;;;;;;1.40;0.60;;;;;;;;;;12593947;28;20040;-75
2022/09/01 06:01:41;;;;;;;0.80;0.70;;;;;;;;;;12613125;28;20050;-75
2022/09/01 06:07:43;;;;;;;0.75;0.50;;;;;;;;;;12647528;28;20389;-75
2022/09/01 06:13:46;;;;;;;0.95;0.68;;;;;;;;;;12629684;28;20040;-75
2022/09/01 06:19:48;;;;;;;;;;;;;;;;;;12614428;28;20048;-74
2022/09/01 06:25:50;;;;;;;0.70;0.50;;;;;;;;;;12578864;28;19909;-75
2022/09/01 06:31:57;;;;;;;0.60;0.60;;;;;;;;;;12560784;28;20049;-75
2022/09/01 06:38:00;;;;;;;1.05;0.80;;;;;;;;;;12558480;28;20040;-74
2022/09/01 06:44:10;;;;;;;0.80;0.80;;;;;;;;;;12575989;28;20394;-75
2022/09/01 06:50:20;;;;;;;0.50;0.50;;;;;;;;;;12575123;28;20041;-75
2022/09/01 06:56:25;;;;;;;0.50;0.40;;;;;;;;;;12558385;28;20416;-74
2022/09/01 07:02:29;;;;;;;0.60;0.60;;;;;;;;;;12558918;28;20055;-75
2022/09/01 07:09:00;;;;;;;0.52;0.45;;;;;;;;;;12575340;28;20255;-75
2022/09/01 07:15:07;;;;;;;0.40;0.40;;;;;;;;;;12573998;28;20028;-75
2022/09/01 07:21:09;;;;;;;0.60;0.60;;;;;;;;;;12557414;28;20051;-74
2022/09/01 07:27:11;;;;;;;0.30;0.30;;;;;;;;;;12557400;28;20044;-75
2022/09/01 07:33:15;;;;;;;0.60;0.40;;;;;;;;;;12574975;28;20056;-75
2022/09/01 07:39:17;;;;;;;0.50;0.50;;;;;;;;;;12558234;28;20061;-75
2022/09/01 07:45:33;;;;;;;0.40;0.40;;;;;;;;;;12573809;28;20386;-75
2022/09/01 07:51:37;;;;;;;0.32;0.32;;;;;;;;;;12573375;28;20025;-75
2022/09/01 07:57:41;;;;;;;;;;;;;;;;;;12573199;28;20067;-76
2022/09/01 08:03:43;;;;;;;0.30;0.30;;;;;;;;;;12572895;28;19908;-77
2022/09/01 08:09:46;;;;;;;0.20;0.20;;;;;;;;;;12573523;28;20041;-76
2022/09/01 08:15:49;;;;;;;1.92;0.30;;;;;;;;;;12572508;28;20029;-75
2022/09/01 08:21:51;;;;;;;0.65;0.50;;;;;;;;;;12573054;28;20048;-75
2022/09/01 08:28:01;;;;;;;0.20;0.20;;;;;;;;;;12572694;28;20039;-74
2022/09/01 08:34:04;;;;;;;0.20;0.20;;;;;;;;;;12573184;28;20392;-77
2022/09/01 08:40:07;;;;;;;0.20;0.10;;;;;;;;;;12556486;28;20048;-76
2022/09/01 08:46:14;;;;;;;0.17;0.17;;;;;;;;;;12556038;28;20039;-76
2022/09/01 08:52:31;;;;;;;0.10;0.10;;;;;;;;;;12590712;28;20052;-78
2022/09/01 08:58:35;;;;;;;0.30;0.20;;;;;;;;;;12558064;28;20544;-77
2022/09/01 09:05:06;;;;;;;0.10;0.10;;;;;;;;;;12594152;28;20052;-77
2022/09/01 09:11:15;;;;;;;0.65;0.13;;;;;;;;;;12564887;28;20059;-78
2022/09/01 09:17:19;;;;;;;0.32;0.20;;;;;;;;;;12599175;28;20497;-77
2022/09/01 09:23:26;;;;;;;0.52;0.50;;;;;;;;;;12602112;28;20032;-78
2022/09/01 09:29:28;;;;;;;0.13;0.10;;;;;;;;;;12578108;28;20052;-78
2022/09/01 09:35:33;;;;;;;0.45;0.20;;;;;;;;;;12601616;28;20028;-75
2022/09/01 09:41:34;;;;;;;0.43;0.10;;;;;;;;;;12573386;28;20063;-75
2022/09/01 09:47:38;;;;;;;0.10;0.10;;;;;;;;;;12596004;28;20036;-75
2022/09/01 09:53:40;;;;;;;1.00;0.17;;;;;;;;;;12595904;28;20035;-75
2022/09/01 09:59:52;;;;;;;0.03;0.03;;;;;;;;;;12595677;28;20051;-75
2022/09/01 10:05:54;;;;;;;0.25;0.10;;;;;;;;;;12578215;28;20497;-75
2022/09/01 10:11:56;;;;;;;0.88;0.20;;;;;;;;;;12594552;28;20047;-75
2022/09/01 10:18:01;;;;;;;0.30;0.20;;;;;;;;;;12576889;28;20036;-75
2022/09/01 10:24:10;;;;;;;0.30;0.20;;;;;;;;;;12594954;28;20036;-74
2022/09/01 10:30:13;;;;;;;0.80;0.20;;;;;;;;;;12577062;28;20049;-75
2022/09/01 10:36:16;;;;;;;0.35;0.15;;;;;;;;;;12594928;28;20044;-74
2022/09/01 10:42:18;;;;;;;1.00;0.20;;;;;;;;;;12559015;28;20056;-74
2022/09/01 10:48:20;;;;;;;0.20;0.20;;;;;;;;;;12593707;28;20043;-74
2022/09/01 10:54:40;;;;;;;0.65;0.10;;;;;;;;;;12575541;28;20028;-75
2022/09/01 11:00:41;;;;;;;1.85;0.20;;;;;;;;;;12592350;28;20047;-74
2022/09/01 11:06:43;;;;;;;2.83;0.30;;;;;;;;;;12574527;28;20182;-75
2022/09/01 11:13:04;;;;;;;1.15;0.40;;;;;;;;;;12577025;28;20466;-75
2022/09/01 11:19:22;;;;;;;0.37;0.30;;;;;;;;;;12594431;28;20044;-74
2022/09/01 11:25:43;;;;;;;0.40;0.30;;;;;;;;;;12575712;28;20028;-75
2022/09/01 11:31:46;;;;;;;1.48;0.50;;;;;;;;;;12577132;28;20052;-75
2022/09/01 11:37:49;;;;;;;1.30;0.43;;;;;;;;;;12576036;28;20048;-75
2022/09/01 11:43:53;;;;;;;2.08;0.55;;;;;;;;;;12594386;28;20029;-74
2022/09/01 11:49:56;;;;;;;5.97;0.65;;;;;;;;;;12593963;28;20033;-74
2022/09/01 11:56:11;;;;;;;1.30;0.50;;;;;;;;;;12576039;28;20039;-74
2022/09/01 12:02:17;;;;;;;3.17;0.77;;;;;;;;;;12575251;28;20045;-73
2022/09/01 12:08:20;;;;;;;3.42;0.80;;;;;;;;;;12558681;28;20052;-74
2022/09/01 12:14:22;;;;;;;3.20;0.70;;;;;;;;;;12575996;28;20033;-74
2022/09/01 12:20:34;;;;;;;3.45;0.55;;;;;;;;;;12575105;28;20040;-75
2022/09/01 12:26:37;;;;;;;3.03;0.70;;;;;;;;;;12575520;28;20036;-74
2022/09/01 12:32:39;;;;;;;2.13;0.80;;;;;;;;;;12594825;28;20048;-74
2022/09/01 12:38:41;;;;;;;1.20;0.52;;;;;;;;;;12602157;28;20052;-74
2022/09/01 12:44:45;;;;;;;0.63;0.30;;;;;;;;;;12601706;28;20049;-74
2022/09/01 12:50:49;;;;;;;4.32;0.70;;;;;;;;;;12583545;28;20051;-73
2022/09/01 12:56:51;;;;;;;1.48;0.40;;;;;;;;;;12583831;28;20065;-73
2022/09/01 13:03:02;;;;;;;1.17;0.32;;;;;;;;;;12600686;28;20045;-73
2022/09/01 13:09:04;;;;;;;1.42;0.40;;;;;;;;;;12583236;28;20060;-73
2022/09/01 13:15:05;;;;;;;3.20;0.47;;;;;;;;;;12600192;28;20348;-74
2022/09/01 13:21:08;;;;;;;1.10;0.60;;;;;;;;;;12599990;28;20398;-74
2022/09/01 13:27:11;;;;;;;0.43;0.30;;;;;;;;;;12581809;28;20029;-73
2022/09/01 13:33:13;;;;;;;0.70;0.60;;;;;;;;;;12582591;28;20391;-74
2022/09/01 13:39:15;;;;;;;2.58;0.68;;;;;;;;;;12599107;28;20505;-75
2022/09/01 13:45:18;;;;;;;0.63;0.40;;;;;;;;;;12580945;28;20036;-74
2022/09/01 13:51:27;;;;;;;1.88;0.90;;;;;;;;;;12581033;28;20047;-74
2022/09/01 13:57:29;;;;;;;2.88;0.75;;;;;;;;;;12598117;28;20478;-74
2022/09/01 14:03:31;;;;;;;0.70;0.50;;;;;;;;;;12597902;28;20044;-75
2022/09/01 14:09:33;;;;;;;1.00;0.30;;;;;;;;;;12598007;28;20037;-75
2022/09/01 14:15:36;;;;;;;1.17;0.68;;;;;;;;;;12580007;28;20427;-74
2022/09/01 14:21:38;;;;;;;0.90;0.52;;;;;;;;;;12579247;28;20387;-74
2022/09/01 14:27:41;;;;;;;0.75;0.50;;;;;;;;;;12578933;28;20041;-74
2022/09/01 14:33:43;;;;;;;2.05;0.60;;;;;;;;;;12597635;28;20040;-74
2022/09/01 14:39:52;;;;;;;1.50;0.70;;;;;;;;;;12596264;28;20044;-73
2022/09/01 14:46:09;;;;;;;1.77;0.70;;;;;;;;;;12577908;28;20055;-74
2022/09/01 14:52:12;;;;;;;1.13;0.60;;;;;;;;;;12577566;28;20036;-75
2022/09/01 14:58:13;;;;;;;1.80;0.60;;;;;;;;;;12595290;28;20028;-75
2022/09/01 15:04:16;;;;;;;1.08;0.60;;;;;;;;;;12561102;28;20036;-75
2022/09/01 15:10:22;;;;;;;2.08;0.80;;;;;;;;;;12595682;28;20037;-76
2022/09/01 15:16:25;;;;;;;1.00;0.60;;;;;;;;;;12576965;28;20047;-75
2022/09/01 15:22:27;;;;;;;0.77;0.50;;;;;;;;;;12593961;28;20056;-75
2022/09/01 15:28:29;;;;;;;2.92;0.80;;;;;;;;;;12576085;28;20048;-74
2022/09/01 15:34:30;;;;;;;0.98;0.75;;;;;;;;;;12575935;28;20475;-75
2022/09/01 15:40:33;;;;;;;1.05;0.77;;;;;;;;;;12594135;28;20048;-75
2022/09/01 15:46:37;;;;;;;1.05;0.57;;;;;;;;;;12593792;28;20051;-75
2022/09/01 15:53:00;;;;;;;1.27;0.70;;;;;;;;;;12593825;28;20107;-75
2022/09/01 15:59:02;;;;;;;1.92;0.80;;;;;;;;;;12575695;28;20036;-74
2022/09/01 16:05:04;;;;;;;1.45;0.70;;;;;;;;;;12593514;28;20043;-74
2022/09/01 16:11:08;;;;;;;0.77;0.60;;;;;;;;;;12583118;28;20048;-74
2022/09/01 16:17:17;;;;;;;3.10;0.70;;;;;;;;;;12585143;28;20036;-75
2022/09/01 16:23:20;;;;;;;5.55;0.80;;;;;;;;;;12603125;28;20036;-75
2022/09/01 16:29:29;;;;;;;0.68;0.50;;;;;;;;;;12603097;28;20522;-75
2022/09/01 16:35:43;;;;;;;1.00;0.45;;;;;;;;;;12601953;28;20325;-74
2022/09/01 16:41:57;;;;;;;1.95;0.60;;;;;;;;;;12584131;28;20433;-74
2022/09/01 16:48:05;;;;;;;0.70;0.55;;;;;;;;;;12583721;28;20051;-74
2022/09/01 16:54:14;;;;;;;0.75;0.57;;;;;;;;;;12601129;28;20043;-74
2022/09/01 17:00:27;;;;;;;0.63;0.60;;;;;;;;;;12567288;28;20103;-75
2022/09/01 17:06:30;;;;;;;1.33;0.60;;;;;;;;;;12566483;28;20497;-74
2022/09/01 17:12:40;;;;;;;0.65;0.47;;;;;;;;;;12566500;28;20430;-74
2022/09/01 17:18:44;;;;;;;0.95;0.50;;;;;;;;;;12581212;28;20041;-75
2022/09/01 17:24:58;;;;;;;1.75;0.90;;;;;;;;;;12600145;28;20037;-76
2022/09/01 17:31:03;;;;;;;1.05;0.70;;;;;;;;;;12565274;28;20482;-75
2022/09/01 17:37:05;;;;;;;0.60;0.50;;;;;;;;;;12565905;28;20382;-75
2022/09/01 17:43:07;;;;;;;;;;;;;;;;;;12600253;28;20055;-74
2022/09/01 17:49:18;;;;;;;0.60;0.60;;;;;;;;;;12598675;28;19919;-75
2022/09/01 17:55:29;;;;;;;0.70;0.67;;;;;;;;;;12580760;28;20287;-75
2022/09/01 18:01:54;;;;;;;1.17;0.63;;;;;;;;;;12580193;28;20668;-74
2022/09/01 18:07:56;;;;;;;1.42;0.55;;;;;;;;;;12580174;28;20044;-74
2022/09/01 18:14:01;;;;;;;0.60;0.60;;;;;;;;;;12579513;28;20414;-75
2022/09/01 18:20:07;;;;;;;1.42;0.70;;;;;;;;;;12579772;28;20436;-75
2022/09/01 18:26:18;;;;;;;0.55;0.50;;;;;;;;;;12579942;28;20032;-74
2022/09/01 18:32:25;;;;;;;1.42;0.68;;;;;;;;;;12578989;28;20076;-74
2022/09/01 18:38:42;;;;;;;0.57;0.50;;;;;;;;;;12596271;28;20390;-74
2022/09/01 18:44:44;;;;;;;0.77;0.50;;;;;;;;;;12595777;28;20032;-74
2022/09/01 18:50:54;;;;;;;0.50;0.50;;;;;;;;;;12595448;28;20033;-74
2022/09/01 18:56:59;;;;;;;0.88;0.50;;;;;;;;;;12595434;28;20024;-75
2022/09/01 19:03:00;;;;;;;1.65;0.77;;;;;;;;;;12578210;28;20398;-75
2022/09/01 19:09:13;;;;;;;1.17;0.50;;;;;;;;;;12595096;28;20040;-74
2022/09/01 19:15:30;;;;;;;1.35;0.60;;;;;;;;;;12594501;28;20036;-74
2022/09/01 19:21:31;;;;;;;1.30;0.70;;;;;;;;;;12594437;28;20044;-74
2022/09/01 19:27:33;;;;;;;;;;;;;;;;;;12576883;28;20387;-74
2022/09/01 19:33:38;;;;;;;0.50;0.50;;;;;;;;;;12576546;28;20082;-74
2022/09/01 19:39:43;;;;;;;1.23;0.70;;;;;;;;;;12594495;28;20502;-74
2022/09/01 19:46:11;;;;;;;1.75;0.70;;;;;;;;;;12575623;28;20043;-74
2022/09/01 19:52:20;;;;;;;1.52;0.80;;;;;;;;;;12575849;28;20025;-74
2022/09/01 19:58:45;;;;;;;0.88;0.70;;;;;;;;;;12593850;28;20394;-74
2022/09/01 20:04:55;;;;;;;1.50;0.80;;;;;;;;;;12562661;28;20037;-74
2022/09/01 20:11:06;;;;;;;1.48;0.63;;;;;;;;;;12594564;28;20029;-74
2022/09/01 20:17:11;;;;;;;1.17;0.55;;;;;;;;;;12559521;28;20037;-74
2022/09/01 20:23:31;;;;;;;1.20;0.85;;;;;;;;;;12594482;28;20470;-73
2022/09/01 20:29:54;;;;;;;0.80;0.70;;;;;;;;;;12593312;28;20067;-74
2022/09/01 20:35:59;;;;;;;2.13;0.70;;;;;;;;;;12574878;28;20044;-74
2022/09/01 20:42:04;;;;;;;0.88;0.88;;;;;;;;;;12592416;28;20053;-73
2022/09/01 20:48:13;;;;;;;0.82;0.60;;;;;;;;;;12574624;28;20421;-74
2022/09/01 20:54:24;;;;;;;1.15;0.75;;;;;;;;;;12596121;28;20032;-74
2022/09/01 21:00:27;;;;;;;2.58;0.70;;;;;;;;;;12567152;28;20059;-74
2022/09/01 21:06:48;;;;;;;1.23;0.70;;;;;;;;;;12601091;28;20040;-74
2022/09/01 21:12:53;;;;;;;1.77;0.60;;;;;;;;;;12601748;28;20047;-74
2022/09/01 21:18:59;;;;;;;0.60;0.57;;;;;;;;;;12600771;28;20040;-74
2022/09/01 21:25:01;;;;;;;2.33;1.20;;;;;;;;;;12600362;28;20056;-74
2022/09/01 21:31:05;;;;;;;1.30;0.80;;;;;;;;;;12600617;28;20411;-74
2022/09/01 21:37:07;;;;;;;1.35;0.80;;;;;;;;;;12599589;28;20025;-74
2022/09/01 21:43:13;;;;;;;1.27;0.90;;;;;;;;;;12598736;28;20052;-74
2022/09/01 21:49:16;;;;;;;1.35;1.00;;;;;;;;;;12580956;28;20051;-74
2022/09/01 21:55:18;;;;;;;1.88;1.13;;;;;;;;;;12598753;28;20036;-75
2022/09/01 22:01:20;;;;;;;2.45;1.30;;;;;;;;;;12598281;28;20045;-74
2022/09/01 22:07:22;;;;;;;1.30;1.08;;;;;;;;;;12597443;28;20394;-75
2022/09/01 22:13:24;;;;;;;1.13;0.90;;;;;;;;;;12599100;28;20040;-74
2022/09/01 22:19:26;;;;;;;2.10;1.05;;;;;;;;;;12580193;28;20052;-75
2022/09/01 22:25:29;;;;;;;1.10;1.00;;;;;;;;;;12597983;28;20466;-74
2022/09/01 22:31:32;;;;;;;2.47;1.05;;;;;;;;;;12579675;28;20087;-74
2022/09/01 22:37:34;;;;;;;0.80;0.77;;;;;;;;;;12579324;28;20035;-74
2022/09/01 22:43:36;;;;;;;1.23;1.00;;;;;;;;;;12563373;28;20048;-74
2022/09/01 22:49:38;;;;;;;0.82;0.82;;;;;;;;;;12596313;28;20036;-74
2022/09/01 22:55:39;;;;;;;;;;;;;;;;;;12578272;28;20390;-74
2022/09/01 23:01:42;;;;;;;1.27;1.00;;;;;;;;;;12595350;28;20625;-73
2022/09/01 23:07:44;;;;;;;1.88;1.27;;;;;;;;;;12577876;28;20043;-73
2022/09/01 23:13:46;;;;;;;1.88;1.40;;;;;;;;;;12597409;28;20047;-76
2022/09/01 23:19:48;;;;;;;2.22;1.63;;;;;;;;;;12594296;28;20048;-75
2022/09/01 23:25:50;;;;;;;1.30;1.20;;;;;;;;;;12594466;28;20397;-74
2022/09/01 23:31:52;;;;;;;0.90;0.90;;;;;;;;;;12576877;28;20071;-74
2022/09/01 23:37:54;;;;;;;3.65;1.25;;;;;;;;;;12576695;28;20039;-73
2022/09/01 23:43:56;;;;;;;1.20;0.90;;;;;;;;;;12576052;28;20055;-73
2022/09/01 23:49:58;;;;;;;1.20;1.05;;;;;;;;;;12594448;28;20024;-74
2022/09/01 23:56:01;;;;;;;1.55;0.77;;;;;;;;;;12594098;28;20032;-73
